createdAt,value
2023-04-03T00:02:04.816Z,94.83
2023-04-03T00:04:35.414Z,96.17
2023-04-03T00:07:02.302Z,97.14
2023-04-03T00:09:32.146Z,96.90
2023-04-03T00:11:59.130Z,96.23
2023-04-03T00:14:26.085Z,96.57
2023-04-03T00:16:53.599Z,97.60
2023-04-03T00:19:29.529Z,95.78
2023-04-03T00:21:57.008Z,95.00
2023-04-03T00:24:24.056Z,96.47
2023-04-03T00:26:51.079Z,97.38
2023-04-03T00:29:17.965Z,97.54
2023-04-03T00:31:45.057Z,97.41
2023-04-03T00:34:12.902Z,97.03
2023-04-03T00:36:40.439Z,96.56
2023-04-03T00:39:07.663Z,96.68
2023-04-03T00:41:34.891Z,96.52
2023-04-03T00:44:19.524Z,96.02
2023-04-03T00:46:49.975Z,97.03
2023-04-03T00:49:17.775Z,96.11
2023-04-03T00:51:48.133Z,95.47
2023-04-03T00:54:15.759Z,95.42
2023-04-03T00:56:42.803Z,95.84
2023-04-03T00:59:22.721Z,96.37
2023-04-03T01:01:54.986Z,96.43
2023-04-03T01:04:37.179Z,95.57
2023-04-03T01:07:28.649Z,96.66
2023-04-03T01:10:00.554Z,97.16
2023-04-03T01:12:39.940Z,95.91
2023-04-03T01:18:20.719Z,96.61
2023-04-03T01:21:20.849Z,96.61
2023-04-03T01:24:29.438Z,97.04
2023-04-03T01:27:09.365Z,96.51
2023-04-03T01:29:37.292Z,96.46
2023-04-03T01:32:10.933Z,97.05
2023-04-03T01:34:47.614Z,96.50
2023-04-03T01:37:27.536Z,96.78
2023-04-03T01:40:43.410Z,96.16
2023-04-03T01:42:58.763Z,97.00
2023-04-03T01:49:03.227Z,96.18
2023-04-03T01:51:33.834Z,96.38
2023-04-03T01:54:14.946Z,94.63
2023-04-03T01:57:09.755Z,96.76
2023-04-03T01:59:49.189Z,96.62
2023-04-03T02:02:31.662Z,96.18
2023-04-03T02:05:04.871Z,97.13
2023-04-03T02:07:44.699Z,97.14
2023-04-03T02:10:21.828Z,96.71
2023-04-03T02:13:36.949Z,97.92
2023-04-03T02:16:34.336Z,95.76
2023-04-03T02:19:02.295Z,96.75
2023-04-03T02:21:29.823Z,96.95
2023-04-03T02:25:02.759Z,96.97
2023-04-03T02:27:06.271Z,95.79
2023-04-03T02:29:51.334Z,96.96
2023-04-03T02:36:00.682Z,97.80
2023-04-03T02:38:41.690Z,97.32
2023-04-03T02:45:15.040Z,96.68
2023-04-03T02:47:44.428Z,96.03
2023-04-03T02:50:21.089Z,97.65
2023-04-03T02:52:48.984Z,97.52
2023-04-03T02:55:37.496Z,98.32
2023-04-03T03:00:59.863Z,97.15
2023-04-03T03:09:30.960Z,97.98
2023-04-03T03:12:01.691Z,97.21
2023-04-03T03:14:29.427Z,96.10
2023-04-03T03:17:13.728Z,97.27
2023-04-03T03:20:31.197Z,97.62
2023-04-03T03:23:31.616Z,97.80
2023-04-03T03:26:26.109Z,97.69
2023-04-03T03:28:58.043Z,97.38
2023-04-03T03:34:14.935Z,96.59
2023-04-03T03:36:42.351Z,96.72
2023-04-03T03:39:08.993Z,97.96
2023-04-03T03:41:37.322Z,98.24
2023-04-03T03:44:04.347Z,98.69
2023-04-03T03:46:31.999Z,98.11
2023-04-03T03:48:59.090Z,97.76
2023-04-03T03:51:26.710Z,98.16
2023-04-03T03:54:22.214Z,97.59
2023-04-03T03:56:47.070Z,98.29
2023-04-03T03:59:15.237Z,98.64
2023-04-03T04:01:42.401Z,98.54
2023-04-03T04:04:09.265Z,98.55
2023-04-03T04:06:36.199Z,98.70
2023-04-03T04:09:02.946Z,98.42
2023-04-03T04:11:29.707Z,97.47
2023-04-03T04:13:56.517Z,98.06
2023-04-03T04:16:24.260Z,97.81
2023-04-03T04:18:51.350Z,96.83
2023-04-03T04:21:18.721Z,98.37
2023-04-03T04:23:48.324Z,99.28
2023-04-03T04:26:15.707Z,99.65
2023-04-03T04:28:42.686Z,100.00
2023-04-03T04:31:10.046Z,100.00
2023-04-03T04:33:37.056Z,100.00
2023-04-03T04:36:04.223Z,100.00
2023-04-03T04:38:31.160Z,100.00
2023-04-03T04:41:01.547Z,100.00
2023-04-03T04:43:28.473Z,98.28
2023-04-03T04:46:11.221Z,99.03
2023-04-03T04:48:38.392Z,97.74
2023-04-03T04:51:05.575Z,99.50
2023-04-03T04:53:36.325Z,98.65
2023-04-03T04:56:03.948Z,98.41
2023-04-03T04:58:31.047Z,98.56
2023-04-03T05:01:03.761Z,99.72
2023-04-03T05:03:31.065Z,99.84
2023-04-03T05:05:58.904Z,99.61
2023-04-03T05:08:28.327Z,99.42
2023-04-03T05:10:56.395Z,98.76
2023-04-03T05:13:23.587Z,99.44
2023-04-03T05:15:53.999Z,98.80
2023-04-03T05:18:21.278Z,99.69
2023-04-03T05:20:51.717Z,100.00
2023-04-03T05:23:24.824Z,100.00
2023-04-03T05:25:54.749Z,100.00
2023-04-03T05:28:24.025Z,100.00
2023-04-03T05:30:56.404Z,100.00
2023-04-03T05:33:27.510Z,100.00
2023-04-03T05:36:05.394Z,99.77
2023-04-03T05:38:35.905Z,99.06
2023-04-03T05:41:03.053Z,97.06
2023-04-03T05:43:30.077Z,97.28
2023-04-03T05:45:57.004Z,97.44
2023-04-03T05:48:24.003Z,96.13
2023-04-03T05:50:51.397Z,95.18
2023-04-03T05:53:26.423Z,93.46
2023-04-03T05:55:53.346Z,91.15
2023-04-03T05:58:20.194Z,90.19
2023-04-03T06:00:46.930Z,86.64
2023-04-03T06:03:14.234Z,85.92
2023-04-03T06:05:41.246Z,85.43
2023-04-03T06:08:17.100Z,84.96
2023-04-03T06:10:47.925Z,85.81
2023-04-03T06:13:20.786Z,85.18
2023-04-03T06:15:48.095Z,83.70
2023-04-03T06:18:28.016Z,81.30
2023-04-03T06:20:54.832Z,81.44
2023-04-03T06:23:22.222Z,81.89
2023-04-03T06:25:49.090Z,80.92
2023-04-03T06:28:15.956Z,79.59
2023-04-03T06:30:44.972Z,80.45
2023-04-03T06:33:29.060Z,79.26
2023-04-03T06:36:00.254Z,76.28
2023-04-03T06:38:31.713Z,75.17
2023-04-03T06:40:59.660Z,73.34
2023-04-03T06:43:26.383Z,73.05
2023-04-03T06:45:53.459Z,71.01
2023-04-03T06:48:20.453Z,69.81
2023-04-03T06:50:47.408Z,70.75
2023-04-03T06:53:14.556Z,70.36
2023-04-03T06:55:42.337Z,71.50
2023-04-03T06:58:09.242Z,70.20
2023-04-03T07:00:35.964Z,69.58
2023-04-03T07:03:02.996Z,69.75
2023-04-03T07:05:30.012Z,68.97
2023-04-03T07:07:57.135Z,68.98
2023-04-03T07:10:23.837Z,65.73
2023-04-03T07:12:54.221Z,66.52
2023-04-03T07:15:21.633Z,65.57
2023-04-03T07:17:48.647Z,65.43
2023-04-03T07:20:16.361Z,62.89
2023-04-03T07:22:43.382Z,61.20
2023-04-03T07:25:11.922Z,60.94
2023-04-03T07:27:38.710Z,60.00
2023-04-03T07:30:09.297Z,58.86
2023-04-03T07:32:36.386Z,59.97
2023-04-03T07:35:13.114Z,57.00
2023-04-03T07:37:40.188Z,56.65
2023-04-03T07:40:09.905Z,56.11
2023-04-03T07:42:37.468Z,56.80
2023-04-03T07:45:05.172Z,54.86
2023-04-03T07:47:32.765Z,55.48
2023-04-03T07:50:00.033Z,56.77
2023-04-03T07:52:29.871Z,55.08
2023-04-03T07:54:57.898Z,52.52
2023-04-03T07:57:25.918Z,53.21
2023-04-03T07:59:53.123Z,53.79
2023-04-03T08:02:22.920Z,52.82
2023-04-03T08:04:53.049Z,52.49
2023-04-03T08:07:19.907Z,52.19
2023-04-03T08:09:46.575Z,52.48
2023-04-03T08:12:16.110Z,52.16
2023-04-03T08:14:52.087Z,51.72
2023-04-03T08:17:18.816Z,52.06
2023-04-03T08:19:45.781Z,51.80
2023-04-03T08:22:12.674Z,50.47
2023-04-03T08:24:48.859Z,50.54
2023-04-03T08:27:23.623Z,53.13
2023-04-03T08:29:50.959Z,51.63
2023-04-03T08:32:17.653Z,51.71
2023-04-03T08:34:44.740Z,51.41
2023-04-03T08:37:23.104Z,51.65
2023-04-03T08:40:03.996Z,49.54
2023-04-03T08:42:57.113Z,50.18
2023-04-03T08:45:45.225Z,50.49
2023-04-03T08:48:23.275Z,51.28
2023-04-03T08:51:03.065Z,49.53
2023-04-03T08:53:35.400Z,49.13
2023-04-03T08:56:12.335Z,50.01
2023-04-03T08:58:57.250Z,49.71
2023-04-03T09:01:45.344Z,49.68
2023-04-03T09:04:20.780Z,49.33
2023-04-03T09:06:53.992Z,48.59
2023-04-03T09:09:35.531Z,47.93
2023-04-03T09:12:10.576Z,48.45
2023-04-03T09:14:43.224Z,48.70
2023-04-03T09:17:40.248Z,48.49
2023-04-03T09:20:25.437Z,48.58
2023-04-03T09:22:56.672Z,47.47
2023-04-03T09:25:32.205Z,48.05
2023-04-03T09:28:00.743Z,46.15
2023-04-03T09:30:28.612Z,46.32
2023-04-03T09:32:59.829Z,47.06
2023-04-03T09:35:47.503Z,45.53
2023-04-03T09:38:18.848Z,46.41
2023-04-03T09:41:49.620Z,44.64
2023-04-03T09:44:31.194Z,44.61
2023-04-03T09:47:31.193Z,45.86
2023-04-03T09:50:16.160Z,46.44
2023-04-03T09:52:45.324Z,45.49
2023-04-03T09:55:19.513Z,45.00
2023-04-03T09:57:47.741Z,44.54
2023-04-03T10:00:27.052Z,46.42
2023-04-03T10:02:57.019Z,45.81
2023-04-03T10:05:34.791Z,47.33
2023-04-03T10:08:35.989Z,47.00
2023-04-03T10:11:15.138Z,45.88
2023-04-03T10:14:02.784Z,46.63
2023-04-03T10:16:46.816Z,47.09
2023-04-03T10:19:22.657Z,46.11
2023-04-03T10:22:00.419Z,44.44
2023-04-03T10:25:01.642Z,44.55
2023-04-03T10:27:46.244Z,46.07
2023-04-03T10:30:22.978Z,45.57
2023-04-03T10:33:02.138Z,45.22
2023-04-03T10:35:54.206Z,46.71
2023-04-03T10:38:38.558Z,46.07
2023-04-03T10:41:22.066Z,47.20
2023-04-03T10:44:07.606Z,47.24
2023-04-03T10:46:44.286Z,47.67
2023-04-03T10:49:32.622Z,47.76
2023-04-03T10:52:28.798Z,47.90
2023-04-03T10:54:58.395Z,48.24
2023-04-03T10:57:26.722Z,49.18
2023-04-03T11:00:05.822Z,49.67
2023-04-03T11:02:47.222Z,48.70
2023-04-03T11:05:27.760Z,49.26
2023-04-03T11:07:57.982Z,50.09
2023-04-03T11:10:36.899Z,50.71
2023-04-03T11:13:14.659Z,49.80
2023-04-03T11:15:42.322Z,51.41
2023-04-03T11:18:21.147Z,52.71
2023-04-03T11:21:02.190Z,50.82
2023-04-03T11:23:48.978Z,53.33
2023-04-03T11:26:23.692Z,52.61
2023-04-03T11:28:57.528Z,53.71
2023-04-03T11:31:36.563Z,53.18
2023-04-03T11:34:18.086Z,52.94
2023-04-03T11:36:55.066Z,52.68
2023-04-03T11:39:39.739Z,52.46
2023-04-03T11:42:35.728Z,52.94
2023-04-03T11:45:29.972Z,52.94
2023-04-03T11:48:16.667Z,53.60
2023-04-03T11:50:51.515Z,55.38
2023-04-03T11:53:18.577Z,54.24
2023-04-03T11:55:51.188Z,54.79
2023-04-03T11:58:20.536Z,56.13
2023-04-03T12:00:53.447Z,57.78
2023-04-03T12:03:30.314Z,58.17
2023-04-03T12:06:17.944Z,58.12
2023-04-03T12:09:02.749Z,59.25
2023-04-03T12:11:35.222Z,59.58
2023-04-03T12:14:02.454Z,62.46
2023-04-03T12:16:47.186Z,64.51
2023-04-03T12:19:22.258Z,69.36
2023-04-03T12:21:59.496Z,71.83
2023-04-03T12:24:34.208Z,74.46
2023-04-03T12:27:01.474Z,78.09
2023-04-03T12:29:34.245Z,79.09
2023-04-03T12:32:33.879Z,81.95
2023-04-03T12:35:07.686Z,87.84
2023-04-03T12:37:49.810Z,90.73
2023-04-03T12:40:49.752Z,91.53
2023-04-03T12:43:51.636Z,95.33
2023-04-03T12:46:27.988Z,97.16
2023-04-03T12:48:58.168Z,99.21
2023-04-03T12:51:41.434Z,98.31
2023-04-03T12:54:43.539Z,98.63
2023-04-03T12:57:22.047Z,98.63
2023-04-03T12:59:50.103Z,97.16
2023-04-03T13:05:24.897Z,93.84
2023-04-03T13:08:00.241Z,95.64
2023-04-03T13:10:27.638Z,95.84
2023-04-03T13:12:58.682Z,96.38
2023-04-03T13:15:31.250Z,95.12
2023-04-03T13:17:58.755Z,95.28
2023-04-03T13:20:33.077Z,94.70
2023-04-03T13:23:13.960Z,94.43
2023-04-03T13:25:50.743Z,95.50
2023-04-03T13:28:25.938Z,96.12
2023-04-03T13:31:08.449Z,96.75
2023-04-03T13:33:41.095Z,100.00
2023-04-03T13:36:19.174Z,100.00
2023-04-03T13:38:46.529Z,100.00
2023-04-03T13:41:33.573Z,100.00
2023-04-03T13:44:24.609Z,96.58
2023-04-03T13:46:53.424Z,95.67
2023-04-03T13:49:30.233Z,97.45
2023-04-03T13:52:07.430Z,93.70
2023-04-03T13:54:38.868Z,97.35
2023-04-03T13:57:15.433Z,99.69
2023-04-03T13:59:45.796Z,100.00
2023-04-03T14:02:23.424Z,100.00
2023-04-03T14:04:59.430Z,100.00
2023-04-03T14:07:27.511Z,100.00
2023-04-03T14:10:05.399Z,100.00
2023-04-03T14:12:46.880Z,100.00
2023-04-03T14:15:21.586Z,100.00
2023-04-03T14:17:48.917Z,100.00
2023-04-03T14:20:22.849Z,100.00
2023-04-03T14:22:56.122Z,100.00
2023-04-03T14:25:29.512Z,100.00
2023-04-03T14:27:57.670Z,100.00
2023-04-03T14:30:33.225Z,100.00
2023-04-03T14:33:12.050Z,100.00
2023-04-03T14:35:43.271Z,100.00
2023-04-03T14:38:32.002Z,100.00
2023-04-03T14:41:16.072Z,100.00
2023-04-03T14:43:45.334Z,100.00
2023-04-03T14:46:56.039Z,100.00
2023-04-03T14:49:27.599Z,100.00
2023-04-03T14:56:05.719Z,100.00
2023-04-03T14:58:33.195Z,100.00
2023-04-03T15:01:03.631Z,100.00
2023-04-03T15:03:47.194Z,100.00
2023-04-03T15:06:16.104Z,100.00
2023-04-03T15:08:51.595Z,100.00
2023-04-03T15:11:19.280Z,100.00
2023-04-03T15:13:50.333Z,100.00
2023-04-03T15:16:21.943Z,100.00
2023-04-03T15:18:52.396Z,100.00
2023-04-03T15:21:23.200Z,100.00
2023-04-03T15:24:07.984Z,100.00
2023-04-03T15:26:42.423Z,100.00
2023-04-03T15:29:16.877Z,100.00
2023-04-03T15:31:47.633Z,100.00
2023-04-03T15:34:23.343Z,100.00
2023-04-03T15:36:58.582Z,100.00
2023-04-03T15:39:40.914Z,100.00
2023-04-03T15:42:07.987Z,100.00
2023-04-03T15:44:36.514Z,100.00
2023-04-03T15:47:07.851Z,100.00
2023-04-03T15:49:36.352Z,100.00
2023-04-03T15:52:32.208Z,100.00
2023-04-03T15:55:30.048Z,100.00
2023-04-03T15:57:50.618Z,100.00
2023-04-03T16:00:45.594Z,100.00
2023-04-03T16:03:17.616Z,100.00
2023-04-03T16:08:52.490Z,100.00
2023-04-03T16:11:29.330Z,100.00
2023-04-03T16:14:07.038Z,100.00
2023-04-03T16:16:41.286Z,100.00
2023-04-03T16:19:13.221Z,100.00
2023-04-03T16:21:44.633Z,100.00
2023-04-03T16:24:19.278Z,100.00
2023-04-03T16:26:48.049Z,100.00
2023-04-03T16:29:36.970Z,100.00
2023-04-03T16:32:14.210Z,100.00
2023-04-03T16:34:42.029Z,100.00
2023-04-03T16:37:09.753Z,100.00
2023-04-03T16:39:36.819Z,100.00
2023-04-03T16:42:03.775Z,100.00
2023-04-03T16:44:34.547Z,100.00
2023-04-03T16:47:05.611Z,100.00
2023-04-03T16:50:53.424Z,100.00
2023-04-03T16:53:28.102Z,100.00
2023-04-03T16:55:59.987Z,100.00
2023-04-03T16:59:09.741Z,100.00
2023-04-03T17:01:45.253Z,100.00
2023-04-03T17:04:22.783Z,100.00
2023-04-03T17:07:17.345Z,100.00
2023-04-03T17:10:15.281Z,100.00
2023-04-03T17:12:59.240Z,100.00
2023-04-03T17:16:05.565Z,100.00
2023-04-03T17:18:43.907Z,100.00
2023-04-03T17:24:45.982Z,100.00
2023-04-03T17:27:38.732Z,100.00
2023-04-03T17:30:10.506Z,100.00
2023-04-03T17:32:42.317Z,100.00
2023-04-03T17:36:41.864Z,100.00
2023-04-03T17:39:02.895Z,100.00
2023-04-03T17:41:30.050Z,100.00
2023-04-03T17:44:05.625Z,100.00
2023-04-03T17:47:12.503Z,100.00
2023-04-03T17:49:58.674Z,100.00
2023-04-03T17:52:42.100Z,100.00
2023-04-03T17:55:22.881Z,100.00
2023-04-03T17:59:09.539Z,100.00
2023-04-03T18:12:21.484Z,100.00
2023-04-03T18:19:06.780Z,100.00
2023-04-03T18:23:40.130Z,100.00
2023-04-03T18:26:12.280Z,100.00
2023-04-03T18:28:57.450Z,100.00
2023-04-03T18:32:03.351Z,100.00
2023-04-03T18:34:33.614Z,100.00
2023-04-03T18:37:06.445Z,100.00
2023-04-03T18:39:34.241Z,100.00
2023-04-03T18:42:11.660Z,100.00
2023-04-03T18:44:40.716Z,100.00
2023-04-03T18:47:14.612Z,100.00
2023-04-03T18:52:55.885Z,100.00
2023-04-03T18:55:23.761Z,100.00
2023-04-03T18:58:44.278Z,100.00
2023-04-03T19:01:15.784Z,100.00
2023-04-03T19:03:54.272Z,100.00
2023-04-03T19:06:21.243Z,100.00
2023-04-03T19:08:50.927Z,100.00
2023-04-03T19:12:07.791Z,100.00
2023-04-03T19:14:59.529Z,100.00
2023-04-03T19:17:37.473Z,100.00
2023-04-03T19:20:08.747Z,100.00
2023-04-03T19:23:13.622Z,100.00
2023-04-03T19:25:41.607Z,100.00
2023-04-03T19:28:19.379Z,100.00
2023-04-03T19:30:52.198Z,100.00
2023-04-03T19:33:30.615Z,100.00
2023-04-03T19:36:12.484Z,100.00
2023-04-03T19:38:51.790Z,100.00
2023-04-03T19:41:40.967Z,100.00
2023-04-03T19:44:09.639Z,100.00
2023-04-03T19:46:56.966Z,100.00
2023-04-03T19:49:25.253Z,100.00
2023-04-03T19:51:59.435Z,100.00
2023-04-03T19:54:37.783Z,100.00
2023-04-03T19:57:09.672Z,100.00
2023-04-03T19:59:43.211Z,100.00
2023-04-03T20:02:29.516Z,100.00
2023-04-03T20:04:58.335Z,100.00
2023-04-03T20:07:55.461Z,100.00
2023-04-03T20:10:29.904Z,100.00
2023-04-03T20:12:59.568Z,100.00
2023-04-03T20:15:27.552Z,100.00
2023-04-03T20:18:07.405Z,100.00
2023-04-03T20:20:44.262Z,100.00
2023-04-03T20:23:21.953Z,100.00
2023-04-03T20:26:05.839Z,100.00
2023-04-03T20:28:46.907Z,100.00
2023-04-03T20:31:24.137Z,100.00
2023-04-03T20:34:08.041Z,100.00
2023-04-03T20:36:36.502Z,100.00
2023-04-03T20:39:15.600Z,100.00
2023-04-03T20:41:46.324Z,100.00
2023-04-03T20:44:20.490Z,100.00
2023-04-03T20:47:11.981Z,100.00
2023-04-03T20:49:44.481Z,100.00
2023-04-03T20:52:14.724Z,100.00
2023-04-03T20:54:49.880Z,100.00
2023-04-03T20:57:23.545Z,100.00
2023-04-03T21:02:40.984Z,100.00
2023-04-03T21:05:15.162Z,100.00
2023-04-03T21:08:24.156Z,100.00
2023-04-03T21:11:32.346Z,100.00
2023-04-03T21:14:40.312Z,100.00
2023-04-03T21:17:08.363Z,100.00
2023-04-03T21:19:40.547Z,100.00
2023-04-03T21:22:11.426Z,100.00
2023-04-03T21:24:39.362Z,100.00
2023-04-03T21:27:25.051Z,100.00
2023-04-03T21:29:53.480Z,100.00
2023-04-03T21:32:21.448Z,100.00
2023-04-03T21:34:48.703Z,100.00
2023-04-03T21:37:16.463Z,100.00
2023-04-03T21:39:45.819Z,100.00
2023-04-03T21:42:13.279Z,100.00
2023-04-03T21:47:30.757Z,100.00
2023-04-03T21:49:59.842Z,100.00
2023-04-03T21:52:28.068Z,100.00
2023-04-03T21:55:00.781Z,100.00
2023-04-03T21:57:29.755Z,100.00
2023-04-03T21:59:57.750Z,100.00
2023-04-03T22:02:27.612Z,100.00
2023-04-03T22:05:10.249Z,100.00
2023-04-03T22:07:47.370Z,100.00
2023-04-03T22:10:26.300Z,100.00
2023-04-03T22:12:56.914Z,100.00
2023-04-03T22:15:27.849Z,100.00
2023-04-03T22:17:55.398Z,100.00
2023-04-03T22:20:38.419Z,100.00
2023-04-03T22:23:06.832Z,100.00
2023-04-03T22:28:22.523Z,100.00
2023-04-03T22:30:50.237Z,100.00
2023-04-03T22:36:22.284Z,100.00
2023-04-03T22:38:50.239Z,100.00
2023-04-03T22:41:18.660Z,100.00
2023-04-03T22:43:49.354Z,100.00
2023-04-03T22:46:20.915Z,100.00
2023-04-03T22:48:51.932Z,100.00
2023-04-03T22:51:21.007Z,100.00
2023-04-03T22:53:49.505Z,100.00
2023-04-03T22:56:23.238Z,100.00
2023-04-03T22:58:52.788Z,100.00
2023-04-03T23:01:23.821Z,100.00
2023-04-03T23:03:52.332Z,100.00
2023-04-03T23:06:23.971Z,100.00
2023-04-03T23:08:51.633Z,100.00
2023-04-03T23:11:19.668Z,100.00
2023-04-03T23:14:00.168Z,100.00
2023-04-03T23:16:28.087Z,100.00
2023-04-03T23:18:58.040Z,100.00
2023-04-03T23:21:25.393Z,100.00
2023-04-03T23:23:55.356Z,100.00
2023-04-03T23:26:27.062Z,100.00
2023-04-03T23:28:59.350Z,100.00
2023-04-03T23:31:29.843Z,100.00
2023-04-03T23:34:00.456Z,100.00
2023-04-03T23:36:28.773Z,100.00
2023-04-03T23:39:16.019Z,100.00
2023-04-03T23:41:48.651Z,100.00
2023-04-03T23:44:17.108Z,100.00
2023-04-03T23:46:44.733Z,100.00
2023-04-03T23:49:12.757Z,100.00
2023-04-03T23:51:40.892Z,100.00
2023-04-03T23:54:16.931Z,100.00
2023-04-03T23:56:44.683Z,100.00
2023-04-03T23:59:12.593Z,100.00
